createdAt,value
2024-03-07T00:00:16.088Z,13.57
2024-03-07T00:02:44.948Z,15.27
2024-03-07T00:05:14.001Z,20.80
2024-03-07T00:07:42.681Z,14.00
2024-03-07T00:10:12.583Z,15.00
2024-03-07T00:12:42.009Z,16.43
2024-03-07T00:15:12.915Z,22.20
2024-03-07T00:17:41.865Z,21.00
2024-03-07T00:20:16.168Z,20.47
2024-03-07T00:22:45.448Z,14.97
2024-03-07T00:25:15.834Z,22.67
2024-03-07T00:27:46.533Z,22.47
2024-03-07T00:30:19.933Z,18.73
2024-03-07T00:32:49.249Z,22.23
2024-03-07T00:35:17.848Z,22.97
2024-03-07T00:37:46.462Z,20.70
2024-03-07T00:40:14.669Z,24.27
2024-03-07T00:42:42.819Z,21.17
2024-03-07T00:45:11.051Z,21.97
2024-03-07T00:47:40.730Z,20.77
2024-03-07T00:50:10.614Z,24.73
2024-03-07T00:52:39.091Z,19.83
2024-03-07T00:55:09.685Z,23.00
2024-03-07T00:57:37.873Z,20.53
2024-03-07T01:00:06.686Z,21.10
2024-03-07T01:02:35.453Z,21.73
2024-03-07T01:05:09.649Z,24.80
2024-03-07T01:07:38.359Z,22.17
2024-03-07T01:10:08.790Z,18.80
2024-03-07T01:12:36.804Z,22.57
2024-03-07T01:15:05.884Z,23.20
2024-03-07T01:17:34.619Z,17.00
2024-03-07T01:20:04.217Z,19.23
2024-03-07T01:22:32.229Z,21.33
2024-03-07T01:25:00.265Z,21.27
2024-03-07T01:27:28.517Z,19.73
2024-03-07T01:29:56.601Z,20.40
2024-03-07T01:32:24.793Z,18.57
2024-03-07T01:34:52.874Z,17.00
2024-03-07T01:37:22.714Z,18.47
2024-03-07T01:39:50.735Z,20.37
2024-03-07T01:42:18.784Z,17.57
2024-03-07T01:44:46.933Z,15.83
2024-03-07T01:47:16.821Z,18.10
2024-03-07T01:49:45.014Z,19.90
2024-03-07T01:52:13.462Z,19.03
2024-03-07T01:54:42.894Z,17.20
2024-03-07T01:57:11.029Z,20.03
2024-03-07T01:59:41.052Z,18.50
2024-03-07T02:02:09.278Z,18.20
2024-03-07T02:04:37.303Z,17.83
2024-03-07T02:07:05.384Z,21.50
2024-03-07T02:09:33.447Z,18.53
2024-03-07T02:12:03.170Z,17.70
2024-03-07T02:14:31.286Z,14.97
2024-03-07T02:16:59.328Z,16.40
2024-03-07T02:19:27.654Z,16.73
2024-03-07T02:21:57.064Z,15.50
2024-03-07T02:24:25.074Z,19.00
2024-03-07T02:26:53.906Z,17.80
2024-03-07T02:29:21.996Z,20.70
2024-03-07T02:31:50.073Z,19.03
2024-03-07T02:34:18.145Z,19.33
2024-03-07T02:36:46.178Z,18.50
2024-03-07T02:39:16.394Z,18.37
2024-03-07T02:41:44.497Z,15.63
2024-03-07T02:44:13.697Z,16.20
2024-03-07T02:46:41.765Z,23.03
2024-03-07T02:49:10.323Z,16.77
2024-03-07T02:51:38.394Z,18.07
2024-03-07T02:54:06.816Z,18.73
2024-03-07T02:56:36.473Z,17.13
2024-03-07T02:59:05.176Z,21.83
2024-03-07T03:01:33.403Z,15.70
2024-03-07T03:04:01.682Z,17.07
2024-03-07T03:06:29.949Z,25.80
2024-03-07T03:08:58.230Z,19.27
2024-03-07T03:11:26.987Z,25.80
2024-03-07T03:13:56.987Z,28.73
2024-03-07T03:16:38.882Z,21.43
2024-03-07T03:19:13.304Z,27.97
2024-03-07T03:21:42.072Z,18.87
2024-03-07T03:24:10.322Z,22.47
2024-03-07T03:26:38.448Z,18.27
2024-03-07T03:29:08.751Z,20.50
2024-03-07T03:31:36.793Z,25.57
2024-03-07T03:34:04.898Z,26.23
2024-03-07T03:36:32.938Z,20.17
2024-03-07T03:39:01.193Z,21.63
2024-03-07T03:41:29.314Z,24.17
2024-03-07T03:43:57.422Z,24.33
2024-03-07T03:46:26.878Z,23.97
2024-03-07T03:48:54.896Z,19.70
2024-03-07T03:51:23.307Z,18.33
2024-03-07T03:53:53.006Z,21.83
2024-03-07T03:56:21.313Z,15.40
2024-03-07T03:58:49.757Z,21.40
2024-03-07T04:01:17.862Z,17.83
2024-03-07T04:03:48.479Z,18.87
2024-03-07T04:06:17.194Z,17.80
2024-03-07T04:08:45.262Z,18.10
2024-03-07T04:11:13.842Z,17.40
2024-03-07T04:13:42.037Z,23.40
2024-03-07T04:16:10.429Z,16.67
2024-03-07T04:18:38.924Z,20.37
2024-03-07T04:21:10.730Z,18.03
2024-03-07T04:23:40.511Z,13.63
2024-03-07T04:26:09.837Z,15.07
2024-03-07T04:28:37.914Z,14.03
2024-03-07T04:31:05.960Z,15.63
2024-03-07T04:33:34.138Z,13.90
2024-03-07T04:36:04.178Z,13.73
2024-03-07T04:38:33.902Z,13.80
2024-03-07T04:41:02.020Z,14.13
2024-03-07T04:43:30.086Z,13.83
2024-03-07T04:45:58.134Z,11.83
2024-03-07T04:48:26.394Z,14.30
2024-03-07T04:50:54.516Z,12.40
2024-03-07T04:53:22.598Z,12.53
2024-03-07T04:55:52.109Z,13.60
2024-03-07T04:58:20.186Z,11.37
2024-03-07T05:00:48.226Z,16.90
2024-03-07T05:03:16.317Z,14.83
2024-03-07T05:05:44.379Z,14.87
2024-03-07T05:08:13.284Z,12.17
2024-03-07T05:10:42.442Z,16.87
2024-03-07T05:13:11.916Z,14.70
2024-03-07T05:15:41.031Z,15.50
2024-03-07T05:18:11.588Z,16.97
2024-03-07T05:20:39.932Z,17.33
2024-03-07T05:23:07.978Z,14.00
2024-03-07T05:25:36.023Z,16.80
2024-03-07T05:28:05.229Z,13.97
2024-03-07T05:30:34.751Z,16.93
2024-03-07T05:33:03.103Z,13.43
2024-03-07T05:35:31.633Z,13.50
2024-03-07T05:38:01.189Z,17.50
2024-03-07T05:40:29.251Z,15.93
2024-03-07T05:42:57.939Z,13.77
2024-03-07T05:45:25.990Z,19.30
2024-03-07T05:47:55.565Z,15.07
2024-03-07T05:50:23.832Z,14.93
2024-03-07T05:52:51.968Z,16.97
2024-03-07T05:55:20.743Z,11.93
2024-03-07T05:57:48.956Z,12.93
2024-03-07T06:00:28.462Z,14.30
2024-03-07T06:02:59.033Z,17.13
2024-03-07T06:05:28.224Z,16.47
2024-03-07T06:07:57.637Z,14.27
2024-03-07T06:10:26.424Z,16.47
2024-03-07T06:13:05.692Z,16.13
2024-03-07T06:15:39.394Z,12.20
2024-03-07T06:18:13.002Z,15.53
2024-03-07T06:20:42.297Z,16.77
2024-03-07T06:23:13.129Z,14.37
2024-03-07T06:25:48.669Z,15.00
2024-03-07T06:28:16.985Z,13.60
2024-03-07T06:30:46.149Z,12.37
2024-03-07T06:33:17.970Z,14.87
2024-03-07T06:35:46.546Z,13.27
2024-03-07T06:38:14.854Z,15.27
2024-03-07T06:40:44.601Z,12.47
2024-03-07T06:43:12.703Z,13.30
2024-03-07T06:45:42.877Z,13.50
2024-03-07T06:48:11.360Z,16.67
2024-03-07T06:50:41.131Z,13.03
2024-03-07T06:53:09.958Z,12.93
2024-03-07T06:55:38.353Z,16.97
2024-03-07T06:58:06.879Z,15.03
2024-03-07T07:00:38.348Z,13.70
2024-03-07T07:03:07.684Z,12.43
2024-03-07T07:05:36.517Z,14.70
2024-03-07T07:08:07.810Z,11.50
2024-03-07T07:10:37.325Z,10.90
2024-03-07T07:13:06.579Z,14.87
2024-03-07T07:15:34.086Z,15.50
2024-03-07T07:18:03.611Z,12.80
2024-03-07T07:20:32.152Z,9.10
2024-03-07T07:23:02.008Z,14.13
2024-03-07T07:25:31.615Z,15.10
2024-03-07T07:27:59.671Z,13.07
2024-03-07T07:30:28.136Z,17.43
2024-03-07T07:32:56.391Z,12.53
2024-03-07T07:35:25.214Z,13.60
2024-03-07T07:37:56.863Z,12.97
2024-03-07T07:40:28.445Z,17.50
2024-03-07T07:42:58.178Z,13.07
2024-03-07T07:45:26.583Z,14.50
2024-03-07T07:47:55.537Z,11.50
2024-03-07T07:50:25.201Z,12.63
2024-03-07T07:52:55.615Z,15.20
2024-03-07T07:55:25.052Z,13.87
2024-03-07T07:57:54.711Z,13.80
2024-03-07T08:00:26.063Z,12.93
2024-03-07T08:02:56.131Z,15.93
2024-03-07T08:05:25.770Z,15.07
2024-03-07T08:07:54.632Z,11.67
2024-03-07T08:10:24.343Z,15.47
2024-03-07T08:12:52.691Z,13.37
2024-03-07T08:15:21.265Z,13.13
2024-03-07T08:17:52.818Z,16.77
2024-03-07T08:20:23.618Z,12.20
2024-03-07T08:22:53.897Z,10.50
2024-03-07T08:25:24.540Z,16.27
2024-03-07T08:27:54.216Z,9.90
2024-03-07T08:30:31.996Z,14.70
2024-03-07T08:33:03.574Z,23.03
2024-03-07T08:35:31.854Z,24.37
2024-03-07T08:38:00.130Z,20.07
2024-03-07T08:40:32.612Z,23.87
2024-03-07T08:43:01.496Z,18.47
2024-03-07T08:45:35.382Z,19.10
2024-03-07T08:48:06.611Z,15.33
2024-03-07T08:50:35.956Z,13.33
2024-03-07T08:53:05.846Z,12.43
2024-03-07T08:55:34.102Z,13.17
2024-03-07T08:58:02.135Z,14.00
2024-03-07T09:00:35.343Z,14.00
2024-03-07T09:03:10.739Z,18.03
2024-03-07T09:05:40.197Z,22.57
2024-03-07T09:08:08.942Z,17.50
2024-03-07T09:10:37.628Z,22.43
2024-03-07T09:13:07.381Z,27.60
2024-03-07T09:15:38.103Z,30.73
2024-03-07T09:18:07.205Z,16.77
2024-03-07T09:20:36.029Z,24.03
2024-03-07T09:23:04.141Z,20.37
2024-03-07T09:25:34.206Z,18.33
2024-03-07T09:28:02.656Z,22.40
2024-03-07T09:30:31.905Z,32.73
2024-03-07T09:33:03.039Z,20.47
2024-03-07T09:35:31.157Z,43.07
2024-03-07T09:37:59.197Z,46.00
2024-03-07T09:40:28.330Z,30.40
2024-03-07T09:42:59.674Z,29.87
2024-03-07T09:45:32.856Z,32.80
2024-03-07T09:48:03.746Z,29.93
2024-03-07T09:50:32.819Z,28.97
2024-03-07T09:53:01.845Z,31.83
2024-03-07T09:55:30.623Z,26.20
2024-03-07T09:58:01.125Z,29.50
2024-03-07T10:00:31.347Z,32.37
2024-03-07T10:03:04.383Z,34.23
2024-03-07T10:05:33.617Z,29.87
2024-03-07T10:08:02.891Z,26.47
2024-03-07T10:10:32.055Z,31.77
2024-03-07T10:13:01.460Z,32.13
2024-03-07T10:15:31.030Z,31.50
2024-03-07T10:17:59.366Z,30.97
2024-03-07T10:20:29.350Z,30.00
2024-03-07T10:22:58.166Z,26.60
2024-03-07T10:25:29.456Z,33.20
2024-03-07T10:27:59.307Z,25.03
2024-03-07T10:30:28.810Z,23.43
2024-03-07T10:32:59.845Z,23.50
2024-03-07T10:35:32.252Z,24.77
2024-03-07T10:38:02.826Z,25.43
2024-03-07T10:40:31.957Z,22.50
2024-03-07T10:43:04.173Z,18.57
2024-03-07T10:45:32.917Z,19.03
2024-03-07T10:48:03.075Z,25.27
2024-03-07T10:50:45.834Z,18.87
2024-03-07T10:53:24.260Z,24.10
2024-03-07T10:56:07.511Z,19.87
2024-03-07T10:58:40.015Z,16.90
2024-03-07T11:01:12.281Z,17.50
2024-03-07T11:03:40.651Z,14.27
2024-03-07T11:06:12.949Z,15.43
2024-03-07T11:08:41.549Z,15.13
2024-03-07T11:11:09.980Z,16.77
2024-03-07T11:13:38.816Z,18.23
2024-03-07T11:16:07.976Z,24.67
2024-03-07T11:18:36.300Z,27.93
2024-03-07T11:21:05.951Z,20.13
2024-03-07T11:23:39.619Z,21.80
2024-03-07T11:26:09.904Z,20.10
2024-03-07T11:28:40.022Z,21.50
2024-03-07T11:31:15.209Z,18.47
2024-03-07T11:33:45.234Z,22.37
2024-03-07T11:36:14.243Z,19.13
2024-03-07T11:38:50.833Z,20.13
2024-03-07T11:41:21.678Z,21.70
2024-03-07T11:43:49.710Z,21.40
2024-03-07T11:46:19.004Z,18.90
2024-03-07T11:48:47.273Z,22.20
2024-03-07T11:51:16.728Z,18.60
2024-03-07T11:53:49.210Z,22.57
2024-03-07T11:56:18.953Z,17.87
2024-03-07T11:58:53.562Z,18.10
2024-03-07T12:01:26.792Z,22.13
2024-03-07T12:03:57.514Z,24.87
2024-03-07T12:06:26.579Z,20.97
2024-03-07T12:08:54.689Z,20.20
2024-03-07T12:11:27.229Z,20.37
2024-03-07T12:13:55.540Z,18.67
2024-03-07T12:16:28.848Z,16.80
2024-03-07T12:18:58.688Z,17.47
2024-03-07T12:21:28.954Z,15.87
2024-03-07T12:23:57.094Z,16.13
2024-03-07T12:26:29.207Z,19.33
2024-03-07T12:28:58.554Z,16.83
2024-03-07T12:31:26.623Z,16.97
2024-03-07T12:33:54.971Z,15.03
2024-03-07T12:36:28.672Z,13.30
2024-03-07T12:38:57.733Z,13.60
2024-03-07T12:41:27.433Z,12.60
2024-03-07T12:43:55.824Z,12.27
2024-03-07T12:46:24.418Z,15.27
2024-03-07T12:48:52.598Z,13.47
2024-03-07T12:51:23.993Z,14.10
2024-03-07T12:53:52.325Z,13.33
2024-03-07T12:56:21.496Z,14.87
2024-03-07T12:58:51.220Z,13.10
2024-03-07T13:01:20.384Z,12.97
2024-03-07T13:03:49.797Z,12.57
2024-03-07T13:06:20.871Z,13.93
2024-03-07T13:08:49.073Z,16.07
2024-03-07T13:11:17.385Z,18.67
2024-03-07T13:13:45.456Z,15.43
2024-03-07T13:16:14.912Z,14.30
2024-03-07T13:18:43.718Z,15.63
2024-03-07T13:21:12.175Z,14.23
2024-03-07T13:23:41.410Z,16.00
2024-03-07T13:26:18.160Z,13.07
2024-03-07T13:28:46.611Z,13.97
2024-03-07T13:31:18.560Z,14.80
2024-03-07T13:33:50.240Z,15.43
2024-03-07T13:36:24.140Z,14.87
2024-03-07T13:38:53.294Z,17.40
2024-03-07T13:41:21.763Z,12.83
2024-03-07T13:43:49.882Z,19.60
2024-03-07T13:46:20.060Z,14.93
2024-03-07T13:48:48.435Z,14.20
2024-03-07T13:51:18.372Z,14.43
2024-03-07T13:53:51.829Z,15.10
2024-03-07T13:56:37.592Z,17.57
2024-03-07T13:59:31.419Z,13.60
2024-03-07T14:02:12.204Z,18.50
2024-03-07T14:05:23.991Z,15.60
2024-03-07T14:08:03.991Z,17.20
2024-03-07T14:11:08.598Z,18.00
2024-03-07T14:13:44.509Z,16.97
2024-03-07T14:16:29.793Z,15.87
2024-03-07T14:19:24.025Z,17.83
2024-03-07T14:21:58.007Z,15.73
2024-03-07T14:25:07.684Z,12.30
2024-03-07T14:27:38.407Z,20.00
2024-03-07T14:30:36.313Z,18.53
2024-03-07T14:33:05.660Z,16.10
2024-03-07T14:36:02.244Z,15.50
2024-03-07T14:38:37.524Z,16.10
2024-03-07T14:41:06.164Z,16.30
2024-03-07T14:43:34.165Z,15.27
2024-03-07T14:46:01.234Z,14.23
2024-03-07T14:48:29.516Z,15.10
2024-03-07T14:50:59.065Z,15.33
2024-03-07T14:53:27.226Z,20.47
2024-03-07T14:55:57.106Z,17.23
2024-03-07T14:58:25.142Z,14.60
2024-03-07T15:00:57.966Z,20.20
2024-03-07T15:03:30.264Z,15.40
2024-03-07T15:06:00.602Z,15.73
2024-03-07T15:08:29.599Z,16.37
2024-03-07T15:11:05.117Z,20.77
2024-03-07T15:13:33.209Z,20.90
2024-03-07T15:16:01.367Z,19.93
2024-03-07T15:18:29.745Z,13.83
2024-03-07T15:20:59.353Z,14.77
2024-03-07T15:23:28.165Z,11.97
2024-03-07T15:28:25.893Z,13.53
2024-03-07T15:30:54.096Z,19.83
2024-03-07T15:33:23.929Z,15.80
2024-03-07T15:35:53.350Z,15.70
2024-03-07T15:38:22.864Z,16.87
2024-03-07T15:40:51.412Z,17.17
2024-03-07T15:43:20.580Z,16.17
2024-03-07T15:45:52.142Z,13.73
2024-03-07T15:48:24.224Z,18.30
2024-03-07T15:50:53.128Z,18.60
2024-03-07T15:53:22.578Z,18.80
2024-03-07T15:55:51.306Z,18.40
2024-03-07T15:58:19.516Z,18.63
2024-03-07T16:00:48.682Z,17.50
2024-03-07T16:03:16.699Z,16.23
2024-03-07T16:05:48.428Z,17.00
2024-03-07T16:08:19.016Z,16.03
2024-03-07T16:10:48.976Z,16.90
2024-03-07T16:13:17.165Z,17.10
2024-03-07T16:15:48.386Z,14.30
2024-03-07T16:18:17.331Z,16.50
2024-03-07T16:20:48.332Z,16.67
2024-03-07T16:23:18.061Z,13.93
2024-03-07T16:25:46.481Z,15.60
2024-03-07T16:28:18.429Z,19.37
2024-03-07T16:30:47.599Z,14.33
2024-03-07T16:33:18.876Z,17.50
2024-03-07T16:35:47.932Z,17.47
2024-03-07T16:38:16.045Z,14.73
2024-03-07T16:40:44.733Z,15.67
2024-03-07T16:43:14.424Z,17.73
2024-03-07T16:45:45.728Z,23.13
2024-03-07T16:48:16.555Z,12.80
2024-03-07T16:50:45.097Z,16.03
2024-03-07T16:53:17.883Z,17.57
2024-03-07T16:55:49.233Z,16.83
2024-03-07T16:58:18.602Z,14.77
2024-03-07T17:00:48.162Z,18.20
2024-03-07T17:03:16.740Z,15.73
2024-03-07T17:05:46.150Z,16.33
2024-03-07T17:08:17.437Z,16.37
2024-03-07T17:10:46.994Z,15.63
2024-03-07T17:13:16.850Z,17.47
2024-03-07T17:15:45.959Z,15.80
2024-03-07T17:18:17.754Z,15.17
2024-03-07T17:20:47.309Z,16.47
2024-03-07T17:23:18.195Z,15.53
2024-03-07T17:25:47.882Z,15.97
2024-03-07T17:28:17.843Z,16.20
2024-03-07T17:30:46.043Z,14.20
2024-03-07T17:33:17.044Z,15.60
2024-03-07T17:35:46.105Z,14.97
2024-03-07T17:38:15.536Z,15.77
2024-03-07T17:40:44.556Z,18.40
2024-03-07T17:43:13.188Z,15.30
2024-03-07T17:45:41.444Z,16.10
2024-03-07T17:48:11.856Z,15.03
2024-03-07T17:50:43.630Z,14.13
2024-03-07T17:53:15.065Z,23.93
2024-03-07T17:55:45.590Z,13.43
2024-03-07T17:58:15.016Z,20.13
2024-03-07T18:00:46.734Z,18.03
2024-03-07T18:03:17.880Z,18.33
2024-03-07T18:05:51.315Z,18.30
2024-03-07T18:08:34.409Z,14.73
2024-03-07T18:11:15.117Z,14.67
2024-03-07T18:13:44.435Z,13.00
2024-03-07T18:16:15.305Z,17.13
2024-03-07T18:18:47.209Z,16.80
2024-03-07T18:21:17.255Z,15.07
2024-03-07T18:23:46.841Z,22.97
2024-03-07T18:26:15.596Z,17.40
2024-03-07T18:28:45.385Z,17.50
2024-03-07T18:31:16.924Z,15.47
2024-03-07T18:33:46.178Z,22.43
2024-03-07T18:36:14.557Z,22.60
2024-03-07T18:38:45.175Z,13.17
2024-03-07T18:41:13.776Z,14.00
2024-03-07T18:43:42.568Z,22.70
2024-03-07T18:46:10.982Z,18.83
2024-03-07T18:48:41.162Z,18.57
2024-03-07T18:51:10.231Z,16.10
2024-03-07T18:53:38.626Z,22.00
2024-03-07T18:56:12.162Z,15.57
2024-03-07T18:58:40.767Z,14.87
2024-03-07T19:01:09.646Z,12.37
2024-03-07T19:03:38.047Z,20.40
2024-03-07T19:06:09.897Z,19.23
2024-03-07T19:08:38.671Z,19.03
2024-03-07T19:11:08.563Z,18.50
2024-03-07T19:13:37.581Z,22.07
2024-03-07T19:16:10.090Z,17.63
2024-03-07T19:18:38.558Z,19.20
2024-03-07T19:21:11.572Z,21.00
2024-03-07T19:23:46.193Z,15.50
2024-03-07T19:26:20.516Z,18.10
2024-03-07T19:28:49.104Z,23.47
2024-03-07T19:31:17.527Z,16.97
2024-03-07T19:33:45.940Z,19.50
2024-03-07T19:36:16.104Z,17.27
2024-03-07T19:38:46.930Z,17.10
2024-03-07T19:41:16.828Z,17.67
2024-03-07T19:43:45.052Z,19.93
2024-03-07T19:46:13.833Z,19.33
2024-03-07T19:48:42.216Z,18.03
2024-03-07T19:51:13.013Z,18.17
2024-03-07T19:53:41.353Z,19.40
2024-03-07T19:56:13.839Z,17.43
2024-03-07T19:58:45.967Z,18.97
2024-03-07T20:01:14.028Z,19.10
2024-03-07T20:03:42.346Z,15.73
2024-03-07T20:06:11.525Z,20.37
2024-03-07T20:08:39.937Z,16.57
2024-03-07T20:11:08.385Z,15.00
2024-03-07T20:13:41.069Z,19.43
2024-03-07T20:16:10.868Z,14.47
2024-03-07T20:18:42.684Z,15.80
2024-03-07T20:21:11.497Z,19.80
2024-03-07T20:23:41.670Z,18.37
2024-03-07T20:26:10.224Z,17.40
2024-03-07T20:28:38.920Z,18.07
2024-03-07T20:31:09.171Z,16.90
2024-03-07T20:33:39.365Z,13.10
2024-03-07T20:36:09.930Z,13.47
2024-03-07T20:38:39.659Z,15.57
2024-03-07T20:41:07.948Z,15.03
2024-03-07T20:43:36.171Z,14.50
2024-03-07T20:46:07.031Z,14.87
2024-03-07T20:48:36.094Z,12.23
2024-03-07T20:51:06.839Z,12.57
2024-03-07T20:53:35.347Z,13.33
2024-03-07T20:56:07.544Z,14.20
2024-03-07T20:58:36.742Z,14.97
2024-03-07T21:01:05.103Z,15.80
2024-03-07T21:03:33.153Z,15.40
2024-03-07T21:06:01.307Z,12.27
2024-03-07T21:08:34.216Z,13.47
2024-03-07T21:11:03.681Z,13.47
2024-03-07T21:13:31.788Z,16.53
2024-03-07T21:15:59.881Z,15.53
2024-03-07T21:18:28.401Z,13.73
2024-03-07T21:20:56.842Z,13.47
2024-03-07T21:23:25.505Z,12.93
2024-03-07T21:25:55.686Z,15.67
2024-03-07T21:28:23.744Z,12.87
2024-03-07T21:30:54.056Z,19.30
2024-03-07T21:33:22.617Z,19.03
2024-03-07T21:35:50.735Z,15.33
2024-03-07T21:38:20.252Z,18.20
2024-03-07T21:40:48.907Z,17.07
2024-03-07T21:43:18.368Z,18.77
2024-03-07T21:45:46.372Z,18.47
2024-03-07T21:50:43.794Z,17.13
2024-03-07T21:53:12.288Z,13.67
2024-03-07T21:55:40.334Z,14.00
2024-03-07T21:58:09.875Z,16.53
2024-03-07T22:00:39.721Z,19.10
2024-03-07T22:03:09.975Z,19.57
2024-03-07T22:05:38.135Z,14.57
2024-03-07T22:08:07.042Z,14.73
2024-03-07T22:10:36.493Z,13.53
2024-03-07T22:13:06.525Z,20.70
2024-03-07T22:15:35.798Z,18.57
2024-03-07T22:18:06.460Z,15.00
2024-03-07T22:20:38.697Z,16.33
2024-03-07T22:23:08.436Z,17.47
2024-03-07T22:25:37.313Z,16.07
2024-03-07T22:28:06.032Z,16.17
2024-03-07T22:30:34.350Z,17.90
2024-03-07T22:33:02.766Z,13.07
2024-03-07T22:35:32.269Z,13.03
2024-03-07T22:38:01.942Z,15.27
2024-03-07T22:40:30.441Z,15.40
2024-03-07T22:42:58.570Z,12.67
2024-03-07T22:45:27.271Z,15.20
2024-03-07T22:47:55.775Z,14.53
2024-03-07T22:50:29.757Z,14.10
2024-03-07T22:53:02.510Z,12.70
2024-03-07T22:55:31.889Z,16.03
2024-03-07T22:58:00.208Z,18.67
2024-03-07T23:00:33.136Z,15.43
2024-03-07T23:03:04.438Z,15.70
2024-03-07T23:05:32.940Z,17.37
2024-03-07T23:08:02.448Z,20.27
2024-03-07T23:10:31.105Z,10.67
2024-03-07T23:13:00.431Z,26.60
2024-03-07T23:15:29.064Z,22.93
2024-03-07T23:17:58.238Z,11.83
2024-03-07T23:20:28.212Z,14.20
2024-03-07T23:22:58.254Z,14.23
2024-03-07T23:25:28.821Z,13.70
2024-03-07T23:27:57.650Z,15.80
2024-03-07T23:30:27.973Z,11.43
2024-03-07T23:32:57.154Z,12.17
2024-03-07T23:35:25.715Z,14.93
2024-03-07T23:37:54.116Z,16.87
2024-03-07T23:40:22.315Z,12.63
2024-03-07T23:42:52.983Z,14.40
2024-03-07T23:45:22.225Z,14.50
2024-03-07T23:47:50.913Z,13.57
2024-03-07T23:50:19.188Z,16.73
2024-03-07T23:52:47.459Z,14.33
2024-03-07T23:55:18.317Z,15.10
2024-03-07T23:57:47.656Z,14.50
